createdAt,value
2023-11-13T00:00:24.524Z,37.33
2023-11-13T00:02:51.508Z,31.17
2023-11-13T00:05:18.319Z,35.13
2023-11-13T00:07:44.913Z,34.22
2023-11-13T00:10:12.609Z,37.10
2023-11-13T00:12:39.330Z,36.25
2023-11-13T00:15:07.116Z,31.53
2023-11-13T00:17:33.707Z,32.60
2023-11-13T00:20:00.724Z,36.63
2023-11-13T00:22:27.689Z,40.00
2023-11-13T00:24:54.319Z,33.47
2023-11-13T00:27:21.027Z,28.60
2023-11-13T00:29:47.773Z,31.83
2023-11-13T00:32:14.608Z,28.88
2023-11-13T00:34:41.439Z,30.33
2023-11-13T00:37:07.958Z,31.30
2023-11-13T00:39:36.204Z,29.47
2023-11-13T00:42:03.045Z,30.30
2023-11-13T00:44:29.629Z,28.50
2023-11-13T00:46:56.565Z,30.92
2023-11-13T00:49:23.194Z,31.63
2023-11-13T00:51:50.053Z,28.93
2023-11-13T00:54:16.595Z,32.50
2023-11-13T00:56:43.170Z,27.50
2023-11-13T00:59:09.985Z,27.38
2023-11-13T01:01:36.863Z,28.15
2023-11-13T01:04:04.457Z,26.27
2023-11-13T01:06:31.629Z,29.80
2023-11-13T01:08:59.769Z,32.58
2023-11-13T01:11:28.268Z,28.60
2023-11-13T01:13:55.114Z,25.25
2023-11-13T01:16:22.047Z,23.83
2023-11-13T01:18:48.749Z,28.77
2023-11-13T01:21:15.502Z,23.77
2023-11-13T01:23:42.553Z,25.42
2023-11-13T01:26:09.186Z,24.67
2023-11-13T01:28:36.498Z,26.50
2023-11-13T01:31:03.455Z,24.23
2023-11-13T01:33:31.442Z,26.23
2023-11-13T01:35:58.063Z,26.52
2023-11-13T01:38:24.598Z,23.17
2023-11-13T01:40:52.828Z,25.33
2023-11-13T01:43:22.214Z,26.05
2023-11-13T01:45:57.501Z,23.40
2023-11-13T01:48:24.987Z,26.80
2023-11-13T01:50:52.680Z,27.33
2023-11-13T01:53:28.882Z,30.17
2023-11-13T01:55:58.499Z,26.40
2023-11-13T01:58:26.768Z,23.48
2023-11-13T02:00:54.775Z,26.65
2023-11-13T02:03:22.121Z,25.05
2023-11-13T02:05:49.838Z,27.97
2023-11-13T02:08:16.460Z,23.30
2023-11-13T02:10:43.153Z,23.40
2023-11-13T02:13:13.232Z,25.00
2023-11-13T02:15:41.855Z,22.65
2023-11-13T02:18:09.002Z,35.03
2023-11-13T02:20:36.263Z,31.95
2023-11-13T02:23:03.135Z,31.58
2023-11-13T02:25:32.262Z,32.13
2023-11-13T02:28:06.600Z,32.25
2023-11-13T02:30:39.348Z,31.23
2023-11-13T02:33:06.865Z,29.80
2023-11-13T02:35:33.559Z,31.15
2023-11-13T02:38:01.715Z,31.77
2023-11-13T02:40:29.449Z,28.77
2023-11-13T02:42:56.292Z,29.60
2023-11-13T02:45:27.518Z,28.42
2023-11-13T02:47:54.926Z,36.33
2023-11-13T02:50:22.203Z,35.28
2023-11-13T02:52:49.030Z,32.05
2023-11-13T02:55:15.929Z,36.83
2023-11-13T02:57:42.618Z,41.20
2023-11-13T03:00:12.642Z,39.13
2023-11-13T03:02:39.395Z,41.08
2023-11-13T03:05:06.950Z,39.80
2023-11-13T03:07:34.257Z,38.50
2023-11-13T03:10:04.170Z,43.05
2023-11-13T03:12:31.560Z,40.30
2023-11-13T03:14:58.490Z,39.08
2023-11-13T03:17:25.324Z,39.25
2023-11-13T03:19:51.901Z,51.87
2023-11-13T03:22:18.772Z,42.38
2023-11-13T03:24:47.870Z,50.40
2023-11-13T03:27:18.347Z,52.53
2023-11-13T03:29:45.373Z,55.08
2023-11-13T03:32:12.486Z,54.23
2023-11-13T03:34:39.235Z,51.00
2023-11-13T03:37:05.873Z,63.83
2023-11-13T03:39:36.657Z,60.03
2023-11-13T03:42:04.389Z,59.80
2023-11-13T03:44:31.061Z,54.57
2023-11-13T03:46:57.775Z,62.83
2023-11-13T03:49:25.522Z,71.03
2023-11-13T03:51:52.228Z,65.25
2023-11-13T03:54:18.956Z,81.82
2023-11-13T03:56:45.951Z,73.83
2023-11-13T03:59:12.483Z,84.95
2023-11-13T04:01:39.297Z,82.93
2023-11-13T04:04:06.737Z,78.97
2023-11-13T04:06:34.178Z,79.82
2023-11-13T04:09:01.326Z,87.60
2023-11-13T04:11:28.018Z,98.30
2023-11-13T04:13:55.476Z,94.10
2023-11-13T04:16:22.456Z,91.88
2023-11-13T04:18:49.082Z,100.97
2023-11-13T04:21:19.264Z,96.13
2023-11-13T04:23:45.907Z,143.68
2023-11-13T04:26:12.535Z,109.43
2023-11-13T04:28:41.297Z,113.60
2023-11-13T04:31:09.584Z,128.52
2023-11-13T04:33:36.956Z,156.67
2023-11-13T04:36:04.283Z,103.32
2023-11-13T04:38:31.343Z,123.78
2023-11-13T04:40:58.925Z,143.85
2023-11-13T04:43:27.457Z,129.25
2023-11-13T04:45:54.629Z,144.97
2023-11-13T04:48:21.969Z,173.82
2023-11-13T04:50:49.374Z,120.22
2023-11-13T04:53:16.038Z,171.35
2023-11-13T04:55:44.132Z,163.30
2023-11-13T04:58:11.176Z,196.07
2023-11-13T05:00:38.107Z,174.27
2023-11-13T05:03:05.553Z,159.98
2023-11-13T05:05:34.328Z,162.52
2023-11-13T05:08:01.620Z,187.27
2023-11-13T05:10:29.048Z,181.23
2023-11-13T05:12:55.701Z,176.88
2023-11-13T05:15:22.384Z,198.02
2023-11-13T05:17:49.786Z,200.77
2023-11-13T05:20:18.906Z,175.13
2023-11-13T05:22:45.643Z,198.03
2023-11-13T05:25:12.667Z,186.88
2023-11-13T05:27:39.736Z,221.82
2023-11-13T05:30:09.140Z,217.50
2023-11-13T05:32:36.407Z,214.20
2023-11-13T05:35:03.431Z,175.90
2023-11-13T05:37:31.025Z,213.80
2023-11-13T05:39:57.876Z,187.25
2023-11-13T05:42:25.243Z,207.65
2023-11-13T05:44:52.214Z,234.63
2023-11-13T05:47:19.259Z,200.53
2023-11-13T05:49:46.181Z,196.40
2023-11-13T05:52:12.896Z,174.45
2023-11-13T05:54:39.449Z,166.35
2023-11-13T05:57:05.979Z,181.48
2023-11-13T05:59:32.756Z,149.03
2023-11-13T06:01:59.382Z,162.68
2023-11-13T06:04:26.927Z,159.25
2023-11-13T06:06:53.696Z,154.07
2023-11-13T06:09:20.336Z,133.68
2023-11-13T06:11:48.448Z,149.17
2023-11-13T06:14:15.512Z,156.05
2023-11-13T06:16:43.333Z,133.63
2023-11-13T06:19:10.057Z,129.27
2023-11-13T06:21:37.441Z,139.82
2023-11-13T06:24:07.314Z,138.83
2023-11-13T06:26:34.449Z,148.38
2023-11-13T06:29:01.221Z,143.75
2023-11-13T06:31:28.652Z,127.97
2023-11-13T06:33:55.592Z,123.60
2023-11-13T06:36:22.561Z,113.73
2023-11-13T06:38:50.600Z,138.82
2023-11-13T06:41:17.088Z,150.98
2023-11-13T06:43:43.900Z,114.72
2023-11-13T06:46:12.703Z,107.18
2023-11-13T06:48:39.728Z,106.73
2023-11-13T06:51:10.441Z,94.78
2023-11-13T06:53:37.920Z,92.97
2023-11-13T06:56:08.099Z,85.82
2023-11-13T06:58:37.507Z,94.55
2023-11-13T07:01:05.356Z,81.37
2023-11-13T07:03:33.909Z,82.88
2023-11-13T07:06:00.518Z,82.28
2023-11-13T07:08:27.911Z,83.55
2023-11-13T07:10:55.502Z,85.22
2023-11-13T07:13:22.093Z,69.50
2023-11-13T07:15:49.129Z,75.28
2023-11-13T07:18:18.427Z,75.28
2023-11-13T07:20:46.523Z,73.63
2023-11-13T07:23:18.977Z,80.28
2023-11-13T07:25:46.509Z,61.73
2023-11-13T07:28:16.866Z,63.08
2023-11-13T07:30:44.263Z,55.22
2023-11-13T07:33:12.611Z,55.97
2023-11-13T07:35:40.465Z,61.88
2023-11-13T07:38:11.292Z,55.63
2023-11-13T07:40:38.274Z,49.20
2023-11-13T07:43:07.526Z,56.05
2023-11-13T07:45:34.968Z,49.72
2023-11-13T07:48:01.635Z,43.38
2023-11-13T07:50:29.279Z,54.80
2023-11-13T07:52:56.108Z,50.72
2023-11-13T07:55:26.724Z,44.45
2023-11-13T07:57:55.025Z,43.58
2023-11-13T08:00:25.853Z,45.33
2023-11-13T08:02:53.335Z,39.80
2023-11-13T08:05:23.146Z,33.55
2023-11-13T08:07:51.411Z,47.08
2023-11-13T08:10:18.682Z,40.17
2023-11-13T08:12:53.263Z,33.88
2023-11-13T08:15:19.989Z,32.37
2023-11-13T08:17:51.009Z,26.73
2023-11-13T08:20:17.723Z,25.02
2023-11-13T08:22:47.538Z,28.25
2023-11-13T08:25:16.489Z,21.48
2023-11-13T08:27:44.364Z,25.90
2023-11-13T08:30:17.226Z,21.15
2023-11-13T08:32:44.372Z,26.75
2023-11-13T08:35:14.148Z,20.83
2023-11-13T08:37:44.927Z,20.70
2023-11-13T08:40:14.979Z,26.37
2023-11-13T08:42:43.039Z,30.13
2023-11-13T08:45:17.296Z,28.15
2023-11-13T08:47:50.789Z,24.92
2023-11-13T08:50:18.707Z,18.70
2023-11-13T08:52:48.028Z,25.07
2023-11-13T08:55:18.775Z,20.33
2023-11-13T08:57:46.741Z,22.77
2023-11-13T09:00:24.286Z,24.75
2023-11-13T09:02:55.876Z,22.85
2023-11-13T09:05:29.947Z,16.70
2023-11-13T09:07:58.972Z,21.58
2023-11-13T09:10:29.271Z,15.95
2023-11-13T09:13:02.339Z,20.13
2023-11-13T09:15:34.086Z,24.73
2023-11-13T09:18:06.982Z,24.20
2023-11-13T09:20:36.281Z,26.52
2023-11-13T09:23:05.352Z,24.98
2023-11-13T09:25:33.698Z,22.02
2023-11-13T09:28:01.292Z,26.58
2023-11-13T09:30:28.543Z,23.97
2023-11-13T09:32:56.904Z,28.08
2023-11-13T09:35:26.131Z,27.75
2023-11-13T09:38:00.562Z,32.40
2023-11-13T09:40:36.163Z,27.00
2023-11-13T09:43:16.890Z,24.83
2023-11-13T09:45:48.368Z,30.30
2023-11-13T09:48:36.987Z,26.75
2023-11-13T09:51:07.454Z,30.92
2023-11-13T09:53:43.918Z,32.83
2023-11-13T09:56:16.246Z,32.20
2023-11-13T09:58:44.518Z,31.17
2023-11-13T10:01:14.431Z,28.83
2023-11-13T10:03:41.517Z,31.55
2023-11-13T10:06:14.621Z,35.35
2023-11-13T10:08:51.029Z,27.70
2023-11-13T10:11:19.321Z,31.17
2023-11-13T10:13:46.798Z,36.72
2023-11-13T10:16:20.229Z,33.97
2023-11-13T10:18:47.775Z,30.30
2023-11-13T10:21:22.989Z,31.13
2023-11-13T10:23:49.773Z,32.05
2023-11-13T10:26:26.769Z,36.97
2023-11-13T10:28:53.650Z,30.88
2023-11-13T10:31:26.380Z,34.28
2023-11-13T10:34:00.698Z,42.70
2023-11-13T10:36:29.407Z,39.55
2023-11-13T10:38:58.998Z,47.38
2023-11-13T10:41:31.137Z,32.03
2023-11-13T10:43:58.045Z,44.50
2023-11-13T10:46:29.750Z,41.90
2023-11-13T10:48:58.320Z,39.47
2023-11-13T10:51:26.453Z,48.70
2023-11-13T10:53:55.033Z,33.83
2023-11-13T10:56:23.203Z,32.15
2023-11-13T10:58:49.920Z,33.13
2023-11-13T11:01:20.730Z,39.92
2023-11-13T11:03:49.188Z,37.60
2023-11-13T11:06:23.961Z,36.47
2023-11-13T11:08:55.202Z,38.92
2023-11-13T11:11:26.438Z,43.37
2023-11-13T11:13:58.300Z,34.33
2023-11-13T11:16:33.488Z,41.85
2023-11-13T11:19:21.814Z,34.55
2023-11-13T11:22:11.842Z,36.47
2023-11-13T11:24:58.890Z,36.43
2023-11-13T11:27:46.686Z,37.83
2023-11-13T11:30:19.361Z,38.08
2023-11-13T11:32:59.560Z,31.30
2023-11-13T11:35:31.021Z,33.08
2023-11-13T11:38:20.046Z,31.30
2023-11-13T11:40:47.406Z,41.05
2023-11-13T11:43:29.267Z,26.88
2023-11-13T11:45:58.551Z,31.67
2023-11-13T11:48:26.206Z,28.05
2023-11-13T11:51:14.538Z,32.77
2023-11-13T11:54:00.445Z,23.08
2023-11-13T11:56:28.975Z,29.45
2023-11-13T11:58:57.216Z,24.77
2023-11-13T12:01:25.710Z,22.77
2023-11-13T12:03:53.992Z,21.47
2023-11-13T12:06:21.862Z,19.40
2023-11-13T12:08:50.606Z,17.20
2023-11-13T12:11:22.007Z,19.02
2023-11-13T12:13:49.021Z,18.67
2023-11-13T12:16:15.928Z,18.87
2023-11-13T12:18:43.370Z,21.45
2023-11-13T12:21:10.776Z,16.90
2023-11-13T12:23:37.459Z,16.65
2023-11-13T12:26:06.263Z,18.00
2023-11-13T12:28:35.333Z,13.30
2023-11-13T12:31:17.147Z,11.70
2023-11-13T12:33:47.861Z,11.63
2023-11-13T12:36:16.558Z,10.88
2023-11-13T12:38:49.263Z,11.68
2023-11-13T12:41:16.152Z,13.17
2023-11-13T12:43:46.144Z,12.15
2023-11-13T12:46:13.534Z,12.27
2023-11-13T12:48:43.004Z,15.65
2023-11-13T12:51:11.327Z,14.50
2023-11-13T12:53:39.804Z,12.43
2023-11-13T12:56:07.585Z,16.48
2023-11-13T12:58:37.666Z,14.48
2023-11-13T13:01:07.808Z,13.40
2023-11-13T13:03:34.630Z,15.68
2023-11-13T13:06:04.837Z,13.17
2023-11-13T13:08:33.042Z,9.70
2023-11-13T13:11:00.131Z,9.70
2023-11-13T13:13:26.772Z,9.95
2023-11-13T13:15:53.499Z,9.73
2023-11-13T13:18:22.981Z,6.43
2023-11-13T13:20:50.842Z,7.80
2023-11-13T13:23:18.215Z,9.32
2023-11-13T13:25:45.274Z,10.18
2023-11-13T13:28:12.763Z,10.05
2023-11-13T13:30:41.253Z,11.83
2023-11-13T13:33:12.379Z,9.93
2023-11-13T13:35:40.635Z,9.82
2023-11-13T13:38:08.126Z,10.45
2023-11-13T13:40:38.053Z,8.80
2023-11-13T13:43:05.191Z,13.37
2023-11-13T13:45:31.928Z,11.00
2023-11-13T13:47:58.742Z,10.80
2023-11-13T13:50:26.676Z,9.43
2023-11-13T13:52:57.581Z,8.05
2023-11-13T13:55:29.399Z,10.17
2023-11-13T13:57:58.553Z,10.77
2023-11-13T14:03:01.182Z,11.05
2023-11-13T14:05:28.460Z,8.05
2023-11-13T14:07:55.240Z,12.53
2023-11-13T14:10:22.991Z,12.65
2023-11-13T14:12:52.460Z,14.13
2023-11-13T14:15:19.203Z,12.43
2023-11-13T14:17:45.977Z,16.30
2023-11-13T14:20:16.972Z,16.77
2023-11-13T14:22:48.490Z,15.23
2023-11-13T14:25:19.096Z,15.65
2023-11-13T14:27:52.478Z,13.63
2023-11-13T14:30:28.148Z,18.52
2023-11-13T14:32:55.450Z,15.00
2023-11-13T14:35:24.643Z,18.83
2023-11-13T14:37:54.814Z,16.65
2023-11-13T14:40:26.903Z,22.20
2023-11-13T14:42:54.479Z,16.50
2023-11-13T14:45:26.510Z,20.10
2023-11-13T14:47:54.432Z,24.50
2023-11-13T14:50:24.251Z,21.33
2023-11-13T14:52:56.322Z,17.73
2023-11-13T14:55:30.816Z,25.05
2023-11-13T14:57:57.993Z,25.47
2023-11-13T15:00:30.427Z,23.40
2023-11-13T15:02:58.056Z,23.13
2023-11-13T15:05:25.429Z,25.17
2023-11-13T15:07:53.213Z,23.77
2023-11-13T15:10:20.878Z,22.10
2023-11-13T15:12:49.887Z,28.67
2023-11-13T15:15:19.285Z,29.63
2023-11-13T15:17:48.666Z,25.80
2023-11-13T15:20:19.725Z,37.60
2023-11-13T15:23:08.678Z,29.30
2023-11-13T15:25:37.625Z,36.35
2023-11-13T15:28:11.734Z,32.33
2023-11-13T15:30:39.421Z,26.13
2023-11-13T15:33:06.705Z,31.75
2023-11-13T15:35:33.966Z,30.33
2023-11-13T15:38:03.238Z,31.88
2023-11-13T15:40:31.103Z,34.20
2023-11-13T15:42:57.850Z,35.30
2023-11-13T15:45:25.053Z,36.75
2023-11-13T15:47:55.283Z,27.13
2023-11-13T15:50:26.392Z,31.58
2023-11-13T15:52:55.037Z,31.42
2023-11-13T15:55:22.232Z,32.33
2023-11-13T15:57:49.833Z,34.03
2023-11-13T16:00:23.010Z,32.97
2023-11-13T16:02:49.914Z,33.35
2023-11-13T16:05:16.737Z,35.03
2023-11-13T16:07:43.443Z,40.67
2023-11-13T16:10:11.048Z,37.88
2023-11-13T16:12:42.459Z,34.10
2023-11-13T16:15:12.571Z,36.35
2023-11-13T16:17:41.387Z,34.83
2023-11-13T16:20:12.780Z,29.20
2023-11-13T16:22:41.238Z,31.52
2023-11-13T16:25:09.352Z,28.27
2023-11-13T16:27:38.407Z,28.35
2023-11-13T16:30:08.658Z,38.15
2023-11-13T16:32:36.035Z,19.20
2023-11-13T16:35:03.656Z,26.92
2023-11-13T16:37:30.262Z,33.73
2023-11-13T16:39:56.889Z,31.38
2023-11-13T16:42:26.864Z,28.10
2023-11-13T16:44:56.635Z,27.88
2023-11-13T16:47:23.570Z,27.92
2023-11-13T16:49:50.485Z,26.80
2023-11-13T16:52:18.049Z,26.02
2023-11-13T16:54:45.014Z,28.42
2023-11-13T16:57:11.633Z,26.40
2023-11-13T16:59:38.487Z,37.58
2023-11-13T17:02:05.257Z,24.07
2023-11-13T17:04:32.237Z,32.15
2023-11-13T17:06:59.097Z,34.55
2023-11-13T17:09:27.256Z,25.30
2023-11-13T17:11:53.842Z,29.48
2023-11-13T17:14:20.434Z,28.40
2023-11-13T17:16:47.283Z,25.05
2023-11-13T17:19:14.116Z,30.08
2023-11-13T17:21:40.771Z,28.63
2023-11-13T17:24:11.090Z,33.38
2023-11-13T17:26:39.339Z,25.83
2023-11-13T17:29:06.535Z,24.65
2023-11-13T17:31:33.447Z,29.42
2023-11-13T17:34:00.982Z,34.72
2023-11-13T17:36:29.687Z,24.05
2023-11-13T17:38:56.263Z,37.87
2023-11-13T17:41:23.899Z,24.67
2023-11-13T17:43:50.900Z,30.75
2023-11-13T17:46:19.510Z,23.67
2023-11-13T17:48:46.373Z,33.65
2023-11-13T17:51:13.120Z,38.03
2023-11-13T17:53:39.779Z,31.10
2023-11-13T17:56:09.659Z,31.20
2023-11-13T17:58:36.902Z,33.97
2023-11-13T18:01:05.500Z,30.10
2023-11-13T18:03:33.368Z,36.67
2023-11-13T18:06:00.952Z,26.73
2023-11-13T18:08:28.600Z,32.35
2023-11-13T18:10:58.203Z,42.17
2023-11-13T18:13:25.876Z,37.80
2023-11-13T18:15:52.714Z,23.83
2023-11-13T18:18:19.434Z,28.60
2023-11-13T18:20:46.128Z,34.70
2023-11-13T18:23:12.990Z,31.98
2023-11-13T18:25:39.670Z,29.40
2023-11-13T18:28:11.019Z,40.03
2023-11-13T18:30:38.380Z,33.80
2023-11-13T18:33:05.194Z,61.00
2023-11-13T18:35:31.799Z,31.85
2023-11-13T18:37:59.009Z,37.35
2023-11-13T18:40:25.978Z,30.60
2023-11-13T18:42:52.765Z,39.67
2023-11-13T18:45:22.721Z,28.77
2023-11-13T18:47:49.356Z,38.45
2023-11-13T18:50:16.502Z,25.77
2023-11-13T18:52:43.328Z,34.10
2023-11-13T18:55:11.039Z,53.55
2023-11-13T18:57:38.690Z,33.20
2023-11-13T19:00:06.546Z,47.67
2023-11-13T19:02:33.243Z,36.80
2023-11-13T19:04:59.958Z,34.67
2023-11-13T19:07:26.677Z,30.20
2023-11-13T19:09:54.731Z,31.45
2023-11-13T19:12:21.320Z,31.40
2023-11-13T19:14:48.039Z,35.42
2023-11-13T19:17:14.698Z,35.00
2023-11-13T19:19:41.543Z,40.55
2023-11-13T19:22:11.174Z,36.40
2023-11-13T19:24:38.103Z,34.97
2023-11-13T19:27:05.107Z,38.22
2023-11-13T19:29:33.178Z,35.63
2023-11-13T19:32:01.125Z,36.80
2023-11-13T19:34:29.241Z,35.25
2023-11-13T19:36:56.053Z,36.95
2023-11-13T19:39:23.187Z,38.85
2023-11-13T19:41:49.865Z,40.93
2023-11-13T19:44:16.370Z,51.70
2023-11-13T19:46:45.607Z,41.72
2023-11-13T19:49:12.207Z,34.70
2023-11-13T19:51:39.314Z,36.58
2023-11-13T19:54:07.348Z,47.30
2023-11-13T19:56:34.602Z,45.03
2023-11-13T19:59:03.035Z,48.10
2023-11-13T20:01:30.460Z,35.13
2023-11-13T20:03:57.556Z,34.72
2023-11-13T20:06:26.109Z,37.00
2023-11-13T20:08:53.827Z,38.42
2023-11-13T20:11:25.188Z,37.75
2023-11-13T20:13:52.022Z,38.10
2023-11-13T20:16:18.834Z,33.85
2023-11-13T20:18:47.804Z,34.97
2023-11-13T20:21:16.324Z,40.75
2023-11-13T20:23:42.863Z,39.85
2023-11-13T20:26:10.098Z,37.40
2023-11-13T20:28:38.237Z,33.58
2023-11-13T20:31:05.352Z,36.27
2023-11-13T20:33:35.241Z,39.25
2023-11-13T20:36:02.147Z,42.08
2023-11-13T20:38:29.076Z,41.22
2023-11-13T20:40:55.912Z,38.92
2023-11-13T20:43:22.556Z,29.23
2023-11-13T20:45:49.509Z,38.35
2023-11-13T20:48:16.376Z,40.15
2023-11-13T20:50:43.165Z,46.63
2023-11-13T20:53:10.710Z,46.95
2023-11-13T20:55:39.634Z,37.57
2023-11-13T20:58:09.130Z,37.30
2023-11-13T21:00:35.960Z,28.13
2023-11-13T21:03:02.752Z,31.08
2023-11-13T21:05:30.217Z,36.70
2023-11-13T21:07:56.937Z,31.10
2023-11-13T21:10:24.435Z,47.15
2023-11-13T21:12:51.193Z,28.73
2023-11-13T21:15:18.165Z,39.90
2023-11-13T21:17:45.722Z,42.47
2023-11-13T21:20:13.250Z,30.17
2023-11-13T21:22:45.228Z,44.80
2023-11-13T21:25:15.330Z,41.03
2023-11-13T21:27:42.105Z,35.50
2023-11-13T21:30:09.204Z,43.65
2023-11-13T21:32:35.961Z,40.83
2023-11-13T21:35:02.766Z,43.58
2023-11-13T21:37:30.619Z,38.03
2023-11-13T21:39:57.537Z,47.95
2023-11-13T21:42:24.050Z,30.58
2023-11-13T21:44:50.806Z,49.67
2023-11-13T21:47:17.655Z,41.00
2023-11-13T21:49:44.356Z,38.95
2023-11-13T21:52:10.985Z,45.53
2023-11-13T21:54:37.744Z,48.92
2023-11-13T21:57:04.723Z,35.30
2023-11-13T21:59:31.615Z,48.65
2023-11-13T22:01:58.581Z,36.47
2023-11-13T22:04:25.464Z,39.78
2023-11-13T22:06:55.227Z,35.53
2023-11-13T22:09:22.347Z,39.70
2023-11-13T22:11:48.986Z,35.00
2023-11-13T22:14:15.867Z,38.67
2023-11-13T22:16:42.602Z,41.38
2023-11-13T22:19:09.510Z,32.33
2023-11-13T22:21:37.439Z,25.67
2023-11-13T22:24:04.955Z,35.50
2023-11-13T22:26:31.731Z,48.00
2023-11-13T22:28:58.323Z,33.25
2023-11-13T22:31:25.500Z,36.90
2023-11-13T22:33:52.364Z,35.93
2023-11-13T22:36:19.803Z,35.05
2023-11-13T22:38:46.391Z,43.33
2023-11-13T22:41:12.950Z,39.45
2023-11-13T22:43:39.845Z,36.15
2023-11-13T22:46:06.485Z,46.23
2023-11-13T22:48:33.281Z,35.28
2023-11-13T22:51:00.456Z,37.67
2023-11-13T22:53:27.080Z,39.25
2023-11-13T22:55:55.144Z,33.72
2023-11-13T22:58:23.667Z,43.27
2023-11-13T23:00:53.216Z,42.45
2023-11-13T23:03:24.101Z,36.15
2023-11-13T23:05:51.609Z,37.90
2023-11-13T23:08:19.101Z,44.65
2023-11-13T23:10:46.828Z,41.73
2023-11-13T23:13:13.504Z,40.60
2023-11-13T23:15:40.351Z,43.30
2023-11-13T23:18:07.177Z,56.35
2023-11-13T23:20:33.925Z,44.70
2023-11-13T23:23:00.756Z,49.27
2023-11-13T23:25:28.438Z,45.15
2023-11-13T23:27:56.475Z,44.90
2023-11-13T23:30:23.165Z,45.92
2023-11-13T23:32:50.268Z,48.13
2023-11-13T23:35:16.857Z,40.63
2023-11-13T23:37:44.613Z,42.50
2023-11-13T23:40:12.529Z,42.22
2023-11-13T23:42:39.439Z,36.38
2023-11-13T23:45:07.235Z,42.97
2023-11-13T23:47:36.388Z,52.90
2023-11-13T23:50:04.049Z,49.28
2023-11-13T23:52:30.876Z,45.28
2023-11-13T23:54:57.521Z,42.28
2023-11-13T23:57:24.056Z,43.13
2023-11-13T23:59:51.103Z,53.30
